Portada
METAR-TAF:

METAR-TAF

Aeroports :

Shillong, Índia

latitud: 25-42-13N, longitud: 091-58-43E, altitud: 887 m

Observació

L'informe es va fer fa 6 hores i 2 minuts, a les 08:00 UTC
Vent 2 kt del Nord/Nord-Oest
Temperatura 22°C
Humitat 50%
Pressió 1015 hPa
Visibilitat: 2000 m
Escasses núvols a una alçada de 800 ft
Núvols disperses a una alçada de 1800 ft
calitja

METAR: VEBI 180800Z 34002KT 2000 HZ FEW008 SCT018 22/11 Q1015

Hora: 19:32 (14:02 UTC)

Pronòstic

L'informe es va fer fa 6 hores i 2 minuts, a les 08:00 UTC
Pronòstic vàlid del 18 a les 09 UTC al 18 a les 18 UTC
Vent 3 kt del Est
Visibilitat: 2000 m
Escasses núvols a una alçada de 1800 ft
Núvols disperses a una alçada de 10000 ft
calitja
Evolucionant progressivament
l' 18 a les 13 UTC al 18 a les 15 UTC
Vent kt del Nord
Visibilitat: 1500 m
Núvols disperses a una alçada de 1800 ft
Cel ennuvolat a una alçada de 10000 ft
boirina

TAF: VEBI 180800Z 1809/1818 10003KT 2000 HZ FEW018 SCT100 BECMG 1813/1815 00000KT 1500 BR SCT018 BKN100

Observacions i pronòstics meteorològics de més de 4000 aeroports (METAR i TAF).

Les estacions disponibles són els punts grocs i vermells al mapa.

Posi el ratolí al punt desitjat per veure el nom de l'estació.

Feu clic per veure les observacions i els pronòstics meteorològics.

Per canviar el mapa: feu clic els botons verds amb una creu de color negre per apropar; al botó verd amb un guió per allunyar la imatge; o en les fletxes verdes per a mapes adjacents.


METAR-TAF: